createdAt,value
2019-03-15T13:06:24.515Z,37.17
2019-03-15T13:06:26.243Z,37.18
2019-03-15T13:06:28.279Z,37.17
2019-03-15T13:06:30.233Z,37.22
2019-03-15T13:06:32.262Z,37.17
2019-03-15T13:06:34.249Z,37.17
2019-03-15T13:06:37.235Z,37.17
2019-03-15T13:06:39.232Z,37.19
2019-03-15T13:06:41.233Z,37.28
2019-03-15T13:06:43.241Z,37.18
2019-03-15T13:06:45.256Z,37.04
2019-03-15T13:06:48.252Z,37.05
2019-03-15T13:06:50.247Z,36.98
2019-03-15T13:06:52.243Z,37.02
2019-03-15T13:06:54.254Z,36.99
2019-03-15T13:06:56.251Z,37.03
2019-03-15T13:06:59.290Z,37.04
2019-03-15T13:07:01.258Z,37.06
2019-03-15T13:07:03.240Z,37.04
2019-03-15T13:07:05.235Z,37.06
2019-03-15T13:07:08.232Z,37.08
2019-03-15T13:07:09.594Z,37.07
2019-03-15T13:07:11.678Z,37.07
2019-03-15T13:07:13.884Z,37.08
2019-03-15T13:07:16.152Z,36.99
2019-03-15T13:07:19.235Z,37.04
2019-03-15T13:07:21.296Z,37.01
2019-03-15T13:07:23.260Z,37.02
2019-03-15T13:07:25.251Z,36.97
2019-03-15T13:07:27.274Z,37.07
2019-03-15T13:07:30.257Z,37.15
2019-03-15T13:07:32.259Z,37.00
2019-03-15T13:07:34.261Z,36.97
2019-03-15T13:07:36.257Z,36.94
2019-03-15T13:07:39.221Z,36.89
2019-03-15T13:07:40.570Z,36.95
2019-03-15T13:07:42.665Z,36.95
2019-03-15T13:07:44.893Z,36.96
2019-03-15T13:07:47.086Z,37.00
2019-03-15T13:07:50.261Z,36.95
2019-03-15T13:07:52.259Z,36.95
2019-03-15T13:07:54.248Z,36.99
2019-03-15T13:07:56.257Z,37.03
2019-03-15T13:07:58.273Z,36.95
2019-03-15T13:08:01.236Z,36.97
2019-03-15T13:08:03.261Z,37.02
2019-03-15T13:08:05.287Z,37.03
2019-03-15T13:08:07.288Z,37.02
2019-03-15T13:08:09.236Z,37.02
2019-03-15T13:08:12.250Z,36.95
2019-03-15T13:08:14.252Z,36.88
2019-03-15T13:08:16.367Z,36.93
2019-03-15T13:08:18.250Z,36.93
2019-03-15T13:08:21.249Z,36.91
2019-03-15T13:08:23.271Z,36.95
2019-03-15T13:08:25.258Z,36.95
2019-03-15T13:08:27.241Z,37.00
2019-03-15T13:08:29.234Z,36.95
2019-03-15T13:08:32.251Z,36.96
2019-03-15T13:08:34.250Z,36.95
2019-03-15T13:08:36.252Z,36.81
2019-03-15T13:08:38.251Z,36.81
2019-03-15T13:08:40.250Z,36.87
2019-03-15T13:08:43.256Z,36.87
2019-03-15T13:08:47.362Z,36.93
2019-03-15T13:08:49.268Z,37.06
2019-03-15T13:08:51.255Z,37.04
2019-03-15T13:08:53.259Z,37.02
2019-03-15T13:08:55.249Z,37.02
2019-03-15T13:08:57.258Z,37.03
2019-03-15T13:08:59.267Z,37.03
2019-03-15T13:09:01.235Z,37.02
2019-03-15T13:09:03.295Z,37.09
2019-03-15T13:09:05.283Z,37.12
2019-03-15T13:09:07.237Z,37.06
2019-03-15T13:09:09.265Z,37.04
2019-03-15T13:09:11.239Z,36.98
2019-03-15T13:09:14.295Z,37.01
2019-03-15T13:09:16.240Z,37.04
2019-03-15T13:09:18.232Z,37.04
2019-03-15T13:09:20.251Z,37.02
2019-03-15T13:09:23.243Z,37.08
2019-03-15T13:09:25.233Z,37.11
2019-03-15T13:09:27.257Z,37.15
2019-03-15T13:09:29.248Z,37.19
2019-03-15T13:09:31.256Z,37.14
2019-03-15T13:09:34.251Z,37.06
2019-03-15T13:09:36.249Z,37.02
2019-03-15T13:09:38.262Z,36.95
2019-03-15T13:09:40.249Z,36.95
2019-03-15T13:09:42.235Z,36.95
2019-03-15T13:09:45.254Z,36.96
2019-03-15T13:09:47.270Z,36.99
2019-03-15T13:09:49.254Z,36.95
2019-03-15T13:09:51.249Z,37.00
2019-03-15T13:09:54.258Z,36.98
2019-03-15T13:09:55.622Z,36.96
2019-03-15T13:09:57.705Z,36.89
2019-03-15T13:09:59.895Z,36.86
2019-03-15T13:10:02.105Z,36.85
2019-03-15T13:10:05.242Z,36.88
2019-03-15T13:10:10.094Z,36.86
2019-03-15T13:10:12.258Z,36.80
2019-03-15T13:10:14.259Z,36.75
2019-03-15T13:10:16.335Z,36.73
2019-03-15T13:10:18.252Z,36.79
2019-03-15T13:10:20.242Z,36.81
2019-03-15T13:10:22.289Z,36.83
2019-03-15T13:10:25.256Z,36.86
2019-03-15T13:10:26.601Z,36.92
2019-03-15T13:10:28.661Z,36.91
2019-03-15T13:10:30.897Z,36.95
2019-03-15T13:10:33.099Z,37.01
2019-03-15T13:10:36.259Z,37.02
2019-03-15T13:10:38.248Z,37.04
2019-03-15T13:10:40.254Z,37.04
2019-03-15T13:10:42.254Z,37.06
2019-03-15T13:10:44.250Z,37.07
2019-03-15T13:10:47.234Z,37.07
2019-03-15T13:10:49.256Z,37.07
2019-03-15T13:10:51.259Z,37.07
2019-03-15T13:10:53.250Z,37.02
2019-03-15T13:10:55.235Z,36.96
2019-03-15T13:10:58.246Z,37.01
2019-03-15T13:11:00.238Z,36.99
2019-03-15T13:11:02.259Z,36.92
2019-03-15T13:11:04.329Z,36.91
2019-03-15T13:11:07.293Z,36.84
2019-03-15T13:11:09.258Z,36.82
2019-03-15T13:11:11.254Z,36.82
2019-03-15T13:11:13.310Z,36.83
2019-03-15T13:11:43.508Z,36.90
2019-03-15T13:11:45.257Z,36.98
2019-03-15T13:11:47.239Z,37.01
2019-03-15T13:11:49.243Z,36.98
2019-03-15T13:11:52.251Z,36.94
2019-03-15T13:11:54.246Z,36.95
2019-03-15T13:11:56.247Z,37.02
2019-03-15T13:11:58.237Z,37.00
2019-03-15T13:12:00.266Z,36.96
2019-03-15T13:12:03.253Z,37.04
2019-03-15T13:12:05.254Z,37.01
2019-03-15T13:12:07.248Z,36.98
2019-03-15T13:12:09.236Z,36.96
2019-03-15T13:12:11.244Z,36.93
2019-03-15T13:12:14.251Z,36.95
2019-03-15T13:12:16.237Z,36.95
2019-03-15T13:12:18.261Z,36.91
2019-03-15T13:12:20.230Z,37.03
2019-03-15T13:12:23.246Z,37.01
2019-03-15T13:12:25.231Z,36.87
2019-03-15T13:12:27.248Z,36.76
2019-03-15T13:12:29.249Z,36.71
2019-03-15T13:12:31.239Z,36.74
2019-03-15T13:12:34.248Z,36.71
2019-03-15T13:12:36.240Z,36.71
2019-03-15T13:12:38.253Z,36.71
2019-03-15T13:12:40.260Z,36.74
2019-03-15T13:12:42.241Z,36.71
2019-03-15T13:12:45.250Z,36.73
2019-03-15T13:12:47.238Z,36.82
2019-03-15T13:12:49.259Z,36.82
2019-03-15T13:12:51.242Z,36.81
2019-03-15T13:12:53.244Z,36.79
2019-03-15T13:12:56.252Z,36.82
2019-03-15T13:12:58.242Z,36.90
2019-03-15T13:13:00.283Z,36.90
2019-03-15T13:13:02.238Z,36.96
2019-03-15T13:13:05.249Z,36.94
2019-03-15T13:13:07.239Z,36.93
2019-03-15T13:13:09.248Z,36.87
2019-03-15T13:13:11.251Z,36.85
2019-03-15T13:13:13.240Z,36.92
2019-03-15T13:13:16.245Z,36.87
2019-03-15T13:13:18.248Z,36.89
2019-03-15T13:13:20.259Z,36.94
2019-03-15T13:13:22.262Z,36.88
2019-03-15T13:13:24.240Z,36.90
2019-03-15T13:13:27.257Z,36.84
2019-03-15T13:13:29.236Z,36.78
2019-03-15T13:13:31.246Z,36.74
2019-03-15T13:13:33.233Z,36.71
2019-03-15T13:13:35.243Z,36.71
2019-03-15T13:13:38.228Z,36.72
2019-03-15T13:13:40.243Z,36.73
2019-03-15T13:13:42.255Z,36.80
2019-03-15T13:13:44.241Z,36.76
2019-03-15T13:13:47.248Z,36.82
2019-03-15T13:13:52.248Z,36.79
2019-03-15T13:13:54.258Z,36.72
2019-03-15T13:13:56.242Z,36.70
2019-03-15T13:13:58.235Z,36.77
2019-03-15T13:14:00.239Z,36.83
2019-03-15T13:14:02.255Z,36.74
2019-03-15T13:14:04.236Z,36.70
2019-03-15T13:14:06.249Z,36.66
2019-03-15T13:14:09.237Z,36.67
2019-03-15T13:14:11.244Z,36.67
2019-03-15T13:14:13.236Z,36.66
2019-03-15T13:14:15.310Z,36.71
2019-03-15T13:14:17.254Z,36.72
2019-03-15T13:14:20.239Z,36.69
2019-03-15T13:14:22.256Z,36.83
2019-03-15T13:14:24.244Z,36.79
2019-03-15T13:14:26.249Z,36.81
2019-03-15T13:14:29.252Z,36.81
2019-03-15T13:14:31.284Z,36.75
2019-03-15T13:14:33.333Z,36.74
2019-03-15T13:14:35.290Z,36.73
2019-03-15T13:14:37.243Z,36.73
2019-03-15T13:14:40.255Z,36.78
2019-03-15T13:14:42.245Z,36.81
2019-03-15T13:14:44.272Z,36.84
2019-03-15T13:14:46.242Z,36.90
2019-03-15T13:14:48.255Z,36.87
2019-03-15T13:14:51.239Z,36.78
2019-03-15T13:14:53.253Z,36.82
2019-03-15T13:14:55.244Z,36.83
2019-03-15T13:14:57.235Z,36.82
2019-03-15T13:21:24.984Z,37.25
2019-03-15T13:21:27.241Z,35.77
2019-03-15T13:21:29.237Z,35.81
2019-03-15T13:21:31.239Z,35.71
2019-03-15T13:21:33.248Z,35.62
2019-03-15T13:21:35.247Z,35.61
2019-03-15T13:21:37.253Z,35.68
2019-03-15T13:21:39.237Z,35.66
2019-03-15T13:21:41.249Z,35.79
2019-03-15T13:21:44.234Z,35.90
2019-03-15T13:21:46.236Z,35.95
2019-03-15T13:21:48.243Z,36.00
2019-03-15T13:21:50.258Z,36.31
2019-03-15T13:21:52.237Z,37.69
2019-03-15T13:21:55.230Z,38.44
2019-03-15T13:21:57.286Z,38.12
2019-03-15T13:21:59.234Z,37.36
2019-03-15T13:22:01.249Z,36.88
2019-03-15T13:22:03.237Z,36.87
2019-03-15T13:22:06.280Z,37.07
2019-03-15T13:22:08.239Z,36.80
2019-03-15T13:22:10.266Z,37.13
2019-03-15T13:22:12.243Z,36.84
2019-03-15T13:22:15.244Z,36.64
2019-03-15T13:22:16.549Z,36.67
2019-03-15T13:22:19.236Z,36.47
2019-03-15T13:22:21.242Z,36.06
2019-03-15T13:22:23.251Z,35.95
2019-03-15T13:22:26.248Z,35.73
2019-03-15T13:22:28.278Z,35.68
2019-03-15T13:22:30.237Z,35.71
2019-03-15T13:22:32.243Z,36.11
2019-03-15T13:22:34.239Z,37.05
2019-03-15T13:22:37.282Z,36.32
2019-03-15T13:22:39.256Z,35.99
2019-03-15T13:22:41.226Z,36.05
2019-03-15T13:22:43.243Z,36.14
2019-03-15T13:22:46.236Z,36.14
2019-03-15T13:22:48.241Z,36.01
2019-03-15T13:22:50.233Z,35.95
2019-03-15T13:22:52.257Z,35.87
2019-03-15T13:22:54.276Z,35.80
2019-03-15T13:22:57.288Z,35.81
2019-03-15T13:22:59.243Z,35.85
2019-03-15T13:23:01.248Z,35.87
2019-03-15T13:23:03.240Z,35.86
2019-03-15T13:23:05.230Z,35.96
2019-03-15T13:23:08.251Z,35.96
2019-03-15T13:23:10.246Z,35.96
2019-03-15T13:23:12.246Z,35.95
2019-03-15T13:23:14.256Z,36.03
2019-03-15T13:23:17.240Z,36.03
2019-03-15T13:23:18.554Z,35.96
2019-03-15T13:23:20.689Z,35.94
2019-03-15T13:23:22.897Z,35.99
2019-03-15T13:23:25.242Z,36.06
2019-03-15T13:23:28.252Z,36.03
2019-03-15T13:23:30.248Z,36.06
2019-03-15T13:23:32.268Z,36.09
2019-03-15T13:23:34.237Z,36.06
2019-03-15T13:23:36.263Z,36.09
2019-03-15T13:23:39.237Z,36.11
2019-03-15T13:23:41.249Z,36.09
2019-03-15T13:23:43.258Z,36.10
2019-03-15T13:23:45.249Z,36.13
2019-03-15T13:23:48.220Z,36.21
2019-03-15T13:23:49.516Z,36.30
2019-03-15T13:23:51.662Z,36.26
2019-03-15T13:23:53.875Z,36.20
2019-03-15T13:23:56.342Z,36.21
2019-03-15T13:23:59.256Z,36.21
2019-03-15T13:24:01.244Z,36.24
2019-03-15T13:24:03.311Z,36.32
2019-03-15T13:24:05.245Z,36.26
2019-03-15T13:24:07.257Z,36.23
2019-03-15T13:24:10.259Z,36.22
2019-03-15T13:24:12.247Z,36.20
2019-03-15T13:24:14.247Z,36.18
2019-03-15T13:24:16.231Z,36.15
2019-03-15T13:24:18.241Z,36.14
2019-03-15T13:24:21.231Z,36.13
2019-03-15T13:24:23.256Z,36.12
2019-03-15T13:24:25.330Z,36.18
2019-03-15T13:24:27.255Z,36.22
2019-03-15T13:24:30.284Z,36.26
2019-03-15T13:24:32.243Z,36.14
2019-03-15T13:24:34.237Z,36.12
2019-03-15T13:24:36.281Z,36.10
2019-03-15T13:24:38.241Z,36.11
2019-03-15T13:24:41.225Z,36.11
2019-03-15T13:24:43.270Z,36.15
2019-03-15T13:24:45.228Z,36.17
2019-03-15T13:24:47.238Z,36.15
2019-03-15T13:24:49.230Z,36.20
2019-03-15T13:24:52.273Z,36.22
2019-03-15T13:24:54.239Z,36.18
2019-03-15T13:24:56.245Z,36.23
2019-03-15T13:24:58.237Z,36.29
2019-03-15T13:25:01.252Z,36.30
2019-03-15T13:25:03.256Z,36.36
2019-03-15T13:25:05.242Z,36.30
2019-03-15T13:25:07.250Z,36.39
2019-03-15T13:25:09.240Z,36.30
2019-03-15T13:25:12.248Z,36.29
2019-03-15T13:25:14.280Z,36.28
2019-03-15T13:25:16.249Z,36.28
2019-03-15T13:25:18.249Z,36.28
2019-03-15T13:25:20.248Z,36.28
2019-03-15T13:25:23.243Z,36.28
2019-03-15T13:25:25.258Z,36.26
2019-03-15T13:25:27.232Z,36.31
2019-03-15T13:25:29.253Z,36.31
2019-03-15T13:25:32.219Z,36.38
2019-03-15T13:25:33.534Z,36.38
2019-03-15T13:25:35.645Z,36.38
2019-03-15T13:25:37.852Z,36.36
2019-03-15T13:25:40.272Z,36.40
2019-03-15T13:25:43.242Z,36.42
2019-03-15T13:25:45.241Z,36.49
2019-03-15T13:25:47.246Z,36.43
2019-03-15T13:25:49.256Z,36.48
2019-03-15T13:25:51.237Z,36.46
2019-03-15T13:25:54.694Z,36.43
2019-03-15T13:25:56.245Z,36.42
2019-03-15T13:25:58.244Z,36.44
2019-03-15T13:26:00.231Z,36.44
2019-03-15T13:26:02.249Z,36.46
2019-03-15T13:26:05.232Z,36.45
2019-03-15T13:26:07.238Z,36.49
2019-03-15T13:26:09.251Z,36.54
2019-03-15T13:26:11.233Z,36.54
2019-03-15T13:26:13.248Z,36.48
2019-03-15T13:26:16.229Z,36.52
2019-03-15T13:26:18.243Z,36.55
2019-03-15T13:26:20.228Z,36.59
2019-03-15T13:26:22.245Z,36.58
2019-03-15T13:26:25.233Z,36.55
2019-03-15T13:26:31.268Z,36.58
2019-03-15T13:26:33.248Z,36.55
2019-03-15T13:26:35.236Z,36.55
2019-03-15T13:26:37.243Z,36.57
2019-03-15T13:26:39.246Z,36.58
2019-03-15T13:26:41.238Z,36.55
2019-03-15T13:26:43.244Z,36.48
2019-03-15T13:26:45.244Z,36.41
2019-03-15T13:26:47.242Z,36.33
2019-03-15T13:26:49.227Z,36.33
2019-03-15T13:26:51.241Z,36.33
2019-03-15T13:27:06.631Z,36.34
2019-03-15T13:27:08.041Z,36.32
2019-03-15T13:27:10.900Z,36.27
2019-03-15T13:27:12.228Z,36.28
2019-03-15T13:27:14.242Z,36.30
2019-03-15T13:27:16.227Z,36.32
2019-03-15T13:27:18.245Z,36.33
2019-03-15T13:27:20.226Z,36.33
2019-03-15T13:27:22.239Z,36.37
2019-03-15T13:27:24.252Z,36.39
2019-03-15T13:27:27.227Z,36.36
2019-03-15T13:27:28.634Z,36.33
2019-03-15T13:27:31.240Z,36.30
2019-03-15T13:27:33.225Z,36.33
2019-03-15T13:27:35.244Z,36.29
2019-03-15T13:27:38.255Z,36.32
2019-03-15T13:27:40.228Z,36.29
2019-03-15T13:27:42.335Z,36.34
2019-03-15T13:27:44.236Z,36.35
2019-03-15T13:27:46.244Z,36.40
2019-03-15T13:27:49.250Z,36.40
2019-03-15T13:27:51.243Z,36.36
2019-03-15T13:27:53.236Z,36.36
2019-03-15T13:27:55.271Z,36.37
2019-03-15T13:27:57.231Z,36.40
2019-03-15T13:28:00.247Z,36.31
2019-03-15T13:28:02.240Z,36.35
2019-03-15T13:28:04.244Z,36.28
2019-03-15T13:28:06.243Z,36.29
2019-03-15T13:28:09.232Z,36.30
2019-03-15T13:28:11.250Z,36.29
2019-03-15T13:28:13.235Z,36.35
2019-03-15T13:28:15.250Z,36.36
2019-03-15T13:28:17.246Z,36.43
2019-03-15T13:28:20.228Z,36.46
2019-03-15T13:28:22.248Z,36.46
2019-03-15T13:28:24.233Z,36.38
2019-03-15T13:28:26.286Z,36.37
2019-03-15T13:28:28.241Z,36.43
2019-03-15T13:28:31.227Z,36.47
2019-03-15T13:28:33.252Z,36.41
2019-03-15T13:28:35.247Z,36.45
2019-03-15T13:28:37.266Z,36.44
2019-03-15T13:28:40.258Z,36.43
2019-03-15T13:28:42.263Z,36.44
2019-03-15T13:28:44.259Z,36.43
2019-03-15T13:28:46.231Z,36.37
2019-03-15T13:28:48.246Z,36.41
2019-03-15T13:28:51.317Z,36.38
2019-03-15T13:28:53.248Z,36.43
2019-03-15T13:28:55.234Z,36.46
2019-03-15T13:28:57.285Z,36.43
2019-03-15T13:28:59.250Z,36.42
2019-03-15T13:29:02.250Z,36.41
2019-03-15T13:29:04.254Z,36.37
2019-03-15T13:29:06.284Z,36.44
2019-03-15T13:29:08.266Z,36.42
2019-03-15T13:29:11.295Z,36.39
2019-03-15T13:29:13.276Z,36.48
2019-03-15T13:29:15.313Z,36.45
2019-03-15T13:29:17.245Z,36.47
2019-03-15T13:29:19.281Z,36.43
2019-03-15T13:29:22.243Z,36.42
2019-03-15T13:29:24.249Z,36.40
2019-03-15T13:29:26.236Z,36.47
2019-03-15T13:29:28.262Z,36.50
2019-03-15T13:29:30.253Z,36.50
2019-03-15T13:29:33.247Z,36.47
2019-03-15T13:29:35.254Z,36.49
2019-03-15T13:29:37.252Z,36.52
2019-03-15T13:29:39.264Z,36.49
2019-03-15T13:29:42.236Z,36.52
2019-03-15T13:29:43.554Z,36.56
2019-03-15T13:29:45.685Z,36.62
2019-03-15T13:29:47.931Z,36.59
2019-03-15T13:29:50.112Z,36.54
2019-03-15T13:29:53.248Z,36.58
2019-03-15T13:29:55.261Z,36.51
2019-03-15T13:29:57.275Z,36.50
2019-03-15T13:29:59.245Z,36.48
2019-03-15T13:30:01.296Z,36.45
2019-03-15T13:30:04.238Z,36.45
2019-03-15T13:30:06.252Z,36.46
2019-03-15T13:30:08.242Z,36.40
2019-03-15T13:30:10.281Z,36.36
2019-03-15T13:30:13.270Z,36.29
2019-03-15T13:30:14.641Z,36.30
2019-03-15T13:30:16.674Z,36.29
2019-03-15T13:30:18.878Z,36.33
2019-03-15T13:30:21.254Z,36.31
2019-03-15T13:30:24.234Z,36.34
2019-03-15T13:30:26.267Z,36.38
2019-03-15T13:30:28.244Z,36.34
2019-03-15T13:30:30.296Z,36.39
2019-03-15T13:30:32.238Z,36.39
2019-03-15T13:30:35.235Z,36.42
2019-03-15T13:30:37.256Z,36.38
2019-03-15T13:30:39.279Z,36.39
2019-03-15T13:30:41.245Z,36.37
2019-03-15T13:30:43.252Z,36.38
2019-03-15T13:30:46.231Z,36.41
2019-03-15T13:30:48.238Z,36.40
2019-03-15T13:30:50.231Z,36.44
2019-03-15T13:30:52.255Z,36.45
2019-03-15T13:30:55.251Z,36.42
2019-03-15T13:30:57.234Z,36.43
2019-03-15T13:30:59.227Z,36.49
2019-03-15T13:31:01.313Z,36.50
2019-03-15T13:31:03.230Z,36.47
2019-03-15T13:31:06.244Z,36.48
2019-03-15T13:31:08.267Z,36.45
2019-03-15T13:31:10.240Z,36.42
2019-03-15T13:31:12.254Z,36.47
2019-03-15T13:31:14.244Z,36.47
2019-03-15T13:31:17.253Z,36.45
2019-03-15T13:31:19.272Z,36.48
2019-03-15T13:31:21.260Z,36.53
2019-03-15T13:31:23.245Z,36.54
2019-03-15T13:31:25.246Z,36.49
2019-03-15T13:31:28.239Z,36.46
2019-03-15T13:31:30.228Z,36.48
2019-03-15T13:31:32.247Z,36.47
2019-03-15T13:31:34.247Z,36.50
2019-03-15T13:31:37.289Z,36.49
2019-03-15T13:31:39.284Z,36.47
2019-03-15T13:31:41.238Z,36.52
2019-03-15T13:31:43.279Z,36.48
2019-03-15T13:31:45.252Z,36.53
2019-03-15T13:31:48.282Z,36.53
2019-03-15T13:31:50.240Z,36.50
2019-03-15T13:31:52.255Z,36.49
2019-03-15T13:31:54.237Z,36.51
2019-03-15T13:31:56.289Z,36.51
2019-03-15T13:31:59.239Z,36.50
2019-03-15T13:32:01.304Z,36.46
2019-03-15T13:32:03.245Z,36.42
2019-03-15T13:32:05.259Z,36.42
2019-03-15T13:32:08.288Z,36.38
2019-03-15T13:32:10.248Z,36.39
2019-03-15T13:32:12.260Z,36.44
2019-03-15T13:32:14.251Z,36.46
2019-03-15T13:32:16.239Z,36.49
2019-03-15T13:32:19.249Z,36.47
2019-03-15T13:32:21.264Z,36.44
2019-03-15T13:32:23.241Z,36.40
2019-03-15T13:32:25.256Z,36.41
2019-03-15T13:32:27.235Z,36.37
2019-03-15T13:32:30.254Z,36.41
2019-03-15T13:32:32.248Z,36.41
2019-03-15T13:32:34.242Z,36.39
2019-03-15T13:32:36.247Z,36.34
2019-03-15T13:32:39.231Z,36.36
2019-03-15T13:32:40.558Z,36.34
2019-03-15T13:32:43.272Z,36.38
2019-03-15T13:32:45.245Z,36.35
2019-03-15T13:32:47.229Z,36.39
2019-03-15T13:32:50.251Z,36.30
2019-03-15T13:32:52.230Z,36.30
2019-03-15T13:32:54.249Z,36.26
2019-03-15T13:32:56.252Z,36.26
2019-03-15T13:32:58.260Z,36.21
2019-03-15T13:33:01.250Z,36.16
2019-03-15T13:33:03.231Z,36.15
2019-03-15T13:33:05.251Z,36.16
2019-03-15T13:33:20.506Z,36.20
2019-03-15T13:33:23.261Z,36.28
2019-03-15T13:33:25.246Z,36.24
2019-03-15T13:33:27.238Z,36.21
2019-03-15T13:33:29.243Z,36.25
2019-03-15T13:33:32.227Z,36.29
2019-03-15T13:33:34.248Z,36.31
2019-03-15T13:33:36.248Z,36.33
2019-03-15T13:33:38.236Z,36.36
2019-03-15T13:33:40.250Z,36.37
2019-03-15T13:33:43.235Z,36.38
2019-03-15T13:33:45.247Z,36.36
2019-03-15T13:33:48.227Z,36.41
2019-03-15T13:33:50.273Z,36.41
2019-03-15T13:33:52.253Z,36.42
2019-03-15T13:33:54.244Z,36.39
2019-03-15T13:33:56.247Z,36.46
2019-03-15T13:33:58.250Z,36.43
2019-03-15T13:34:00.258Z,36.48
2019-03-15T13:34:03.249Z,36.49
2019-03-15T13:34:05.247Z,36.47
2019-03-15T13:34:07.247Z,36.48
2019-03-15T13:34:09.236Z,36.31
2019-03-15T13:34:11.247Z,36.38
2019-03-15T13:34:14.237Z,36.37
2019-03-15T13:34:16.231Z,36.35
2019-03-15T13:34:18.234Z,36.33
2019-03-15T13:34:20.257Z,36.29
2019-03-15T13:34:22.244Z,36.31
2019-03-15T13:34:25.251Z,36.33
2019-03-15T13:34:27.235Z,36.39
2019-03-15T13:34:29.257Z,36.37
2019-03-15T13:34:31.235Z,36.38
2019-03-15T13:34:34.241Z,36.31
2019-03-15T13:34:35.554Z,36.28
2019-03-15T13:34:38.283Z,36.26
2019-03-15T13:34:40.238Z,36.33
2019-03-15T13:34:42.242Z,36.35
2019-03-15T13:34:45.239Z,36.36
2019-03-15T13:34:47.239Z,36.30
2019-03-15T13:34:49.243Z,36.32
2019-03-15T13:34:51.248Z,36.31
2019-03-15T13:34:53.263Z,36.26
2019-03-15T13:34:56.249Z,36.28
2019-03-15T13:34:58.243Z,36.30
2019-03-15T13:35:00.395Z,36.28
2019-03-15T13:35:02.279Z,36.32
2019-03-15T13:35:04.264Z,36.35
2019-03-15T13:35:07.248Z,36.32
2019-03-15T13:35:09.253Z,36.27
2019-03-15T13:35:11.250Z,36.24
2019-03-15T13:35:13.251Z,36.22
2019-03-15T13:35:16.294Z,36.28
2019-03-15T13:35:18.237Z,36.31
2019-03-15T13:35:20.262Z,36.32
2019-03-15T13:35:22.249Z,36.34
2019-03-15T13:35:24.243Z,36.37
2019-03-15T13:35:27.230Z,36.32
2019-03-15T13:35:29.270Z,36.31
2019-03-15T13:35:31.230Z,36.33
2019-03-15T13:35:33.248Z,36.35
2019-03-15T13:35:35.231Z,36.41
2019-03-15T13:35:38.260Z,36.41
2019-03-15T13:35:40.240Z,36.39
2019-03-15T13:35:42.290Z,36.42
2019-03-15T13:35:44.254Z,36.44
2019-03-15T13:35:47.248Z,36.48
2019-03-15T13:35:49.246Z,36.50
2019-03-15T13:35:51.258Z,36.53
2019-03-15T13:35:53.265Z,36.49
2019-03-15T13:35:55.288Z,36.44
2019-03-15T13:35:58.244Z,36.37
2019-03-15T13:36:00.242Z,36.39
2019-03-15T13:36:02.262Z,36.41
2019-03-15T13:36:04.233Z,36.41
2019-03-15T13:36:06.248Z,36.36
2019-03-15T13:36:09.284Z,36.34
2019-03-15T13:36:11.254Z,36.31
2019-03-15T13:36:13.246Z,36.34
2019-03-15T13:36:15.236Z,36.34
2019-03-15T13:36:18.244Z,36.26
2019-03-15T13:36:20.280Z,36.31
2019-03-15T13:36:22.270Z,36.27
2019-03-15T13:36:24.251Z,36.25
2019-03-15T13:36:26.226Z,36.29
2019-03-15T13:36:29.259Z,36.25
2019-03-15T13:36:31.263Z,36.33
2019-03-15T13:36:33.229Z,36.33
2019-03-15T13:36:35.260Z,36.33
2019-03-15T13:36:37.274Z,36.33
2019-03-15T13:36:40.244Z,36.34
2019-03-15T13:36:42.252Z,36.36
2019-03-15T13:36:44.269Z,36.39
2019-03-15T13:36:46.231Z,36.30
2019-03-15T13:36:49.247Z,36.31
2019-03-15T13:36:51.235Z,36.33
2019-03-15T13:36:53.282Z,36.31
2019-03-15T13:36:55.241Z,36.32
2019-03-15T13:36:57.271Z,36.32
2019-03-15T13:37:00.238Z,36.32
2019-03-15T13:37:02.251Z,36.35
2019-03-15T13:37:04.257Z,36.37
2019-03-15T13:37:06.230Z,36.31
2019-03-15T13:37:08.245Z,36.30
2019-03-15T13:37:11.231Z,36.32
2019-03-15T13:37:13.256Z,36.23
2019-03-15T13:37:15.242Z,36.24
2019-03-15T13:37:17.256Z,36.20
2019-03-15T13:37:20.267Z,36.23
2019-03-15T13:37:22.251Z,36.22
2019-03-15T13:37:24.245Z,36.17
2019-03-15T13:37:26.231Z,36.15
2019-03-15T13:37:28.247Z,36.17
2019-03-15T13:37:31.241Z,36.15
2019-03-15T13:37:33.231Z,36.19
2019-03-15T13:37:35.243Z,36.17
2019-03-15T13:37:37.242Z,36.16
2019-03-15T13:37:42.423Z,36.13
2019-03-15T13:37:45.257Z,36.27
2019-03-15T13:37:47.246Z,36.28
2019-03-15T13:37:49.236Z,36.27
2019-03-15T13:37:51.230Z,36.26
2019-03-15T13:37:53.244Z,36.28
2019-03-15T13:37:55.251Z,36.31
2019-03-15T13:37:57.247Z,36.30
2019-03-15T13:37:59.263Z,36.28
2019-03-15T13:38:02.239Z,36.22
2019-03-15T13:38:04.250Z,36.25
2019-03-15T13:38:06.237Z,36.31
2019-03-15T13:38:08.249Z,36.32
2019-03-15T13:38:10.243Z,36.29
2019-03-15T13:38:13.246Z,36.29
2019-03-15T13:38:15.235Z,36.28
2019-03-15T13:38:17.253Z,36.25
2019-03-15T13:38:19.264Z,36.31
2019-03-15T13:38:22.239Z,36.34
2019-03-15T13:38:23.549Z,36.32
2019-03-15T13:38:25.678Z,36.29
2019-03-15T13:38:27.903Z,36.31
2019-03-15T13:38:30.246Z,36.33
2019-03-15T13:38:33.235Z,36.35
2019-03-15T13:38:35.238Z,36.35
2019-03-15T13:38:37.236Z,36.37
2019-03-15T13:38:39.248Z,36.34
2019-03-15T13:38:41.260Z,36.35
2019-03-15T13:38:44.269Z,36.39
2019-03-15T13:38:46.243Z,36.36
2019-03-15T13:38:48.251Z,36.37
2019-03-15T13:38:50.238Z,36.39
2019-03-15T13:38:53.241Z,36.43
2019-03-15T13:38:54.623Z,36.44
2019-03-15T13:38:56.731Z,36.50
2019-03-15T13:38:58.870Z,36.53
2019-03-15T13:39:01.245Z,36.55
2019-03-15T13:39:04.252Z,36.54
2019-03-15T13:39:06.241Z,36.53
2019-03-15T13:39:08.245Z,36.52
2019-03-15T13:39:10.238Z,36.56
2019-03-15T13:39:12.258Z,36.55
2019-03-15T13:39:15.266Z,36.53
2019-03-15T13:39:17.255Z,36.57
2019-03-15T13:39:19.233Z,36.51
2019-03-15T13:39:21.255Z,36.57
2019-03-15T13:39:23.234Z,36.57
2019-03-15T13:39:26.245Z,36.59
2019-03-15T13:39:28.230Z,36.57
2019-03-15T13:39:30.239Z,36.57
2019-03-15T13:39:32.262Z,36.58
2019-03-15T13:39:35.235Z,36.59
2019-03-15T13:39:37.262Z,36.58
2019-03-15T13:39:39.271Z,36.58
2019-03-15T13:39:41.256Z,36.56
2019-03-15T13:39:43.230Z,36.50
2019-03-15T13:39:46.251Z,36.57
2019-03-15T13:39:48.246Z,36.62
2019-03-15T13:39:50.261Z,36.59
2019-03-15T13:39:52.239Z,36.55
2019-03-15T13:39:54.295Z,36.60
2019-03-15T13:39:57.310Z,36.59
2019-03-15T13:39:59.243Z,36.55
2019-03-15T13:40:01.243Z,36.56
2019-03-15T13:40:03.249Z,36.60
2019-03-15T13:40:05.271Z,36.63
2019-03-15T13:40:08.343Z,36.60
2019-03-15T13:40:10.242Z,36.58
2019-03-15T13:40:12.248Z,36.64
2019-03-15T13:40:14.242Z,36.54
2019-03-15T13:40:17.258Z,36.48
2019-03-15T13:40:19.346Z,36.48
2019-03-15T13:40:21.273Z,36.49
2019-03-15T13:40:23.269Z,36.43
2019-03-15T13:40:25.255Z,36.43
2019-03-15T13:40:28.238Z,36.46
2019-03-15T13:40:30.242Z,36.45
2019-03-15T13:40:32.230Z,36.41
2019-03-15T13:40:34.282Z,36.41
2019-03-15T13:40:36.275Z,36.47
2019-03-15T13:40:39.341Z,36.40
2019-03-15T13:40:41.283Z,36.46
2019-03-15T13:40:43.248Z,36.47
2019-03-15T13:40:45.231Z,36.47
2019-03-15T13:40:48.232Z,36.47
2019-03-15T13:40:49.535Z,36.47
2019-03-15T13:40:51.667Z,36.52
2019-03-15T13:40:53.898Z,36.55
2019-03-15T13:40:56.138Z,36.59
2019-03-15T13:40:59.236Z,36.60
2019-03-15T13:41:01.245Z,36.54
2019-03-15T13:41:03.239Z,36.45
2019-03-15T13:41:05.291Z,36.48
2019-03-15T13:41:07.235Z,36.44
2019-03-15T13:41:10.248Z,36.44
2019-03-15T13:41:12.241Z,36.42
2019-03-15T13:41:14.252Z,36.39
2019-03-15T13:41:16.236Z,36.46
2019-03-15T13:41:18.250Z,36.39
2019-03-15T13:41:21.253Z,36.35
2019-03-15T13:41:23.232Z,36.39
2019-03-15T13:41:25.247Z,36.42
2019-03-15T13:41:27.236Z,36.42
2019-03-15T13:41:30.245Z,36.45
2019-03-15T13:41:32.284Z,36.45
2019-03-15T13:41:34.249Z,36.46
2019-03-15T13:41:36.248Z,36.49
2019-03-15T13:41:38.249Z,36.44
2019-03-15T13:41:41.240Z,36.44
2019-03-15T13:41:43.250Z,36.37
2019-03-15T13:41:45.241Z,36.37
2019-03-15T13:41:47.227Z,36.40
2019-03-15T13:41:49.281Z,36.42
2019-03-15T13:41:52.249Z,36.37
2019-03-15T13:41:54.237Z,36.40
2019-03-15T13:41:56.300Z,36.35
2019-03-15T13:41:58.239Z,36.33
2019-03-15T13:42:01.260Z,36.38
2019-03-15T13:42:03.238Z,36.45
2019-03-15T13:42:05.263Z,36.46
2019-03-15T13:42:07.251Z,36.41
2019-03-15T13:42:09.230Z,36.39
2019-03-15T13:42:12.270Z,36.43
2019-03-15T13:42:14.272Z,36.44
2019-03-15T13:42:16.242Z,36.50